New Mount Pleasant, Indiana
Current Conditions -  °F | °C
As of 3:53 PM on Friday 24 Oct 2014 (Local Time) from KMIE Reporting Station
Clear Clear  
Wind Chill: 64°   Ceiling: Unl
Heat Index: 64°   Visibility: 10mi
Dew Point: 45°   Wind: 8mph
Humidity: 50%   Direction: 240°WSW
Pressure: 30.02"   Gusts: NA
Location:  40.4312°N, 85.0058°W
Report Text: KMIE 241953Z 24007KT 10SM CLR 18/07 A3002 RMK AO2 SLP163 T01780072
Loading
Personal Weather Stations






























Interactive Weather Map
Tropical Storm Tracking
New forecast layout! Learn more

10-Day Weather Forecast

Advertisements
Track Severe Weather on mobile